createdAt,value
2022-08-05T01:16:55.204Z,18.69
2022-08-05T01:20:00.912Z,18.66
2022-08-05T01:22:18.835Z,18.58
2022-08-05T01:24:54.186Z,18.51
2022-08-05T01:27:25.267Z,18.43
2022-08-05T01:29:56.052Z,18.34
2022-08-05T01:32:27.610Z,18.27
2022-08-05T01:34:58.567Z,18.18
2022-08-05T01:37:32.955Z,18.12
2022-08-05T01:40:03.586Z,18.06
2022-08-05T01:42:31.760Z,18.00
2022-08-05T01:45:02.296Z,17.95
2022-08-05T01:47:39.426Z,17.88
2022-08-05T01:50:04.113Z,17.82
2022-08-05T01:52:35.994Z,17.77
2022-08-05T01:55:06.594Z,17.75
2022-08-05T01:58:11.871Z,17.70
2022-08-05T02:00:12.300Z,17.68
2022-08-05T02:02:53.693Z,17.65
2022-08-05T02:05:23.314Z,17.63
2022-08-05T02:08:01.242Z,17.59
2022-08-05T02:10:20.498Z,17.58
2022-08-05T02:12:55.015Z,17.56
2022-08-05T02:15:26.181Z,17.54
2022-08-05T02:18:30.820Z,17.50
2022-08-05T02:20:54.715Z,17.47
2022-08-05T02:23:26.691Z,17.44
2022-08-05T02:25:58.370Z,17.43
2022-08-05T02:28:32.988Z,17.42
2022-08-05T02:31:02.289Z,17.41
2022-08-05T02:33:38.859Z,17.38
2022-08-05T02:36:09.396Z,17.33
2022-08-05T02:38:37.637Z,17.33
2022-08-05T02:41:16.942Z,17.30
2022-08-05T02:43:38.507Z,17.27
2022-08-05T02:46:08.294Z,17.26
2022-08-05T02:48:37.615Z,17.22
2022-08-05T02:51:05.992Z,17.18
2022-08-05T02:53:39.725Z,17.17
2022-08-05T02:56:10.687Z,17.13
2022-08-05T02:58:43.619Z,17.10
2022-08-05T03:01:14.188Z,17.06
2022-08-05T03:04:02.101Z,17.00
2022-08-05T03:06:55.444Z,16.99
2022-08-05T03:08:43.424Z,16.94
2022-08-05T03:11:55.202Z,16.89
2022-08-05T03:13:52.155Z,16.83
2022-08-05T03:16:20.278Z,16.80
2022-08-05T03:18:47.850Z,16.79
2022-08-05T03:21:16.486Z,16.77
2022-08-05T03:23:45.618Z,16.75
2022-08-05T03:26:30.955Z,16.77
2022-08-05T03:28:43.305Z,16.77
2022-08-05T03:31:10.775Z,16.80
2022-08-05T03:33:49.265Z,16.81
2022-08-05T03:36:13.218Z,16.86
2022-08-05T03:38:42.897Z,16.92
2022-08-05T03:41:12.532Z,16.93
2022-08-05T03:44:08.598Z,16.96
2022-08-05T03:46:09.900Z,17.02
2022-08-05T03:48:37.689Z,17.56
2022-08-05T03:52:36.558Z,18.27
2022-08-05T03:55:34.462Z,18.91
2022-08-05T03:56:46.286Z,19.72
2022-08-05T03:59:25.720Z,20.55
2022-08-05T04:01:59.107Z,21.32
2022-08-05T04:04:26.900Z,21.96
2022-08-05T04:06:57.907Z,22.52
2022-08-05T04:09:26.845Z,23.09
2022-08-05T04:11:56.423Z,23.66
2022-08-05T04:14:30.536Z,24.17
2022-08-05T04:16:56.135Z,24.70
2022-08-05T04:19:23.532Z,25.28
2022-08-05T04:22:09.257Z,25.70
2022-08-05T04:24:22.586Z,26.09
2022-08-05T04:26:50.784Z,26.38
2022-08-05T04:29:18.705Z,26.57
2022-08-05T04:31:48.440Z,26.68
2022-08-05T04:34:31.270Z,26.95
2022-08-05T04:36:49.852Z,27.33
2022-08-05T04:39:15.541Z,27.53
2022-08-05T04:41:43.033Z,27.67
2022-08-05T04:44:12.565Z,27.87
2022-08-05T04:46:42.971Z,28.11
2022-08-05T04:49:14.814Z,28.17
2022-08-05T04:51:43.541Z,28.42
2022-08-05T04:54:11.978Z,28.61
2022-08-05T04:56:40.115Z,28.79
2022-08-05T04:59:24.039Z,28.89
2022-08-05T05:02:07.316Z,28.99
2022-08-05T05:04:07.119Z,29.02
2022-08-05T05:06:40.534Z,29.19
2022-08-05T05:09:05.476Z,29.22
2022-08-05T05:11:41.470Z,29.13
2022-08-05T05:14:03.159Z,29.19
2022-08-05T05:16:30.565Z,28.84
2022-08-05T05:19:18.906Z,28.77
2022-08-05T05:21:27.617Z,28.45
2022-08-05T05:24:02.889Z,28.36
2022-08-05T05:26:28.298Z,28.37
2022-08-05T05:28:55.734Z,28.31
2022-08-05T05:31:24.602Z,28.25
2022-08-05T05:33:59.085Z,28.20
2022-08-05T05:36:22.682Z,28.01
2022-08-05T05:38:50.711Z,28.03
2022-08-05T05:41:18.524Z,28.10
2022-08-05T05:43:57.193Z,28.06
2022-08-05T05:46:17.616Z,28.02
2022-08-05T05:48:47.905Z,28.02
2022-08-05T05:51:21.182Z,27.77
2022-08-05T05:53:57.996Z,27.58
2022-08-05T05:56:26.195Z,27.80
2022-08-05T05:58:49.346Z,28.00
2022-08-05T06:01:17.747Z,28.14
2022-08-05T06:04:00.614Z,28.30
2022-08-05T06:06:16.363Z,28.64
2022-08-05T06:08:43.895Z,28.94
2022-08-05T06:11:13.376Z,29.29
2022-08-05T06:13:50.237Z,29.53
2022-08-05T06:16:30.385Z,29.50
2022-08-05T06:18:39.842Z,29.48
2022-08-05T06:21:08.041Z,29.59
2022-08-05T06:23:44.219Z,29.79
2022-08-05T06:26:19.395Z,29.72
2022-08-05T06:28:36.485Z,29.68
2022-08-05T06:31:11.302Z,29.74
2022-08-05T06:34:06.889Z,29.68
2022-08-05T06:36:09.795Z,29.90
2022-08-05T06:38:36.013Z,29.96
2022-08-05T06:41:01.723Z,30.03
2022-08-05T06:43:58.655Z,30.11
2022-08-05T06:46:03.635Z,30.31
2022-08-05T06:48:52.830Z,30.56
2022-08-05T06:51:00.084Z,30.99
2022-08-05T06:53:29.178Z,31.25
2022-08-05T06:55:58.624Z,31.49
2022-08-05T06:58:34.866Z,31.73
2022-08-05T07:01:01.411Z,31.93
2022-08-05T07:03:32.431Z,32.14
2022-08-05T07:05:59.094Z,32.11
2022-08-05T07:08:29.478Z,32.03
2022-08-05T07:10:57.075Z,32.14
2022-08-05T07:13:59.283Z,32.59
2022-08-05T07:17:59.793Z,32.86
2022-08-05T07:19:00.730Z,32.93
2022-08-05T07:21:30.215Z,33.01
2022-08-05T07:24:01.318Z,33.05
2022-08-05T07:26:28.929Z,33.06
2022-08-05T07:28:56.369Z,33.19
2022-08-05T07:31:40.779Z,33.34
2022-08-05T07:33:55.098Z,33.55
2022-08-05T07:36:25.041Z,33.39
2022-08-05T07:38:54.960Z,33.46
2022-08-05T07:42:14.488Z,33.62
2022-08-05T07:43:55.095Z,33.78
2022-08-05T07:46:26.858Z,33.94
2022-08-05T07:49:02.068Z,34.05
2022-08-05T07:51:40.435Z,34.15
2022-08-05T07:53:55.895Z,34.00
2022-08-05T07:56:59.865Z,34.07
2022-08-05T07:58:54.768Z,34.22
2022-08-05T08:01:24.128Z,34.24
2022-08-05T08:03:51.690Z,34.14
2022-08-05T08:06:22.554Z,33.68
2022-08-05T08:08:51.928Z,33.26
2022-08-05T08:11:19.581Z,33.33
2022-08-05T08:14:00.466Z,33.39
2022-08-05T08:16:34.642Z,33.33
2022-08-05T08:18:50.019Z,33.10
2022-08-05T08:21:17.868Z,33.29
2022-08-05T08:24:01.569Z,33.58
2022-08-05T08:26:15.193Z,33.68
2022-08-05T08:28:55.215Z,33.84
2022-08-05T08:31:16.409Z,34.09
2022-08-05T08:33:42.642Z,34.29
2022-08-05T08:36:38.938Z,34.38
2022-08-05T08:38:40.929Z,34.50
2022-08-05T08:41:10.608Z,34.63
2022-08-05T08:45:20.551Z,34.44
2022-08-05T08:46:15.587Z,34.53
2022-08-05T08:49:06.239Z,34.57
2022-08-05T08:52:01.693Z,34.61
2022-08-05T08:53:45.278Z,34.68
2022-08-05T08:56:10.570Z,34.77
2022-08-05T08:58:44.659Z,34.69
2022-08-05T09:01:10.891Z,34.46
2022-08-05T09:03:44.994Z,34.46
2022-08-05T09:06:12.117Z,34.52
2022-08-05T09:08:40.262Z,34.67
2022-08-05T09:11:07.238Z,34.64
2022-08-05T09:14:00.917Z,34.65
2022-08-05T09:16:07.497Z,34.85
2022-08-05T09:18:41.319Z,35.11
2022-08-05T09:21:11.477Z,35.19
2022-08-05T09:23:37.502Z,35.27
2022-08-05T09:26:09.902Z,35.33
2022-08-05T09:28:39.502Z,35.32
2022-08-05T09:31:23.024Z,35.47
2022-08-05T09:33:58.278Z,35.65
2022-08-05T09:36:33.135Z,35.76
2022-08-05T09:39:01.392Z,35.77
2022-08-05T09:41:33.218Z,35.84
2022-08-05T09:44:00.086Z,35.90
2022-08-05T09:46:30.348Z,35.98
2022-08-05T09:49:07.773Z,35.93
2022-08-05T09:51:39.968Z,35.87
2022-08-05T09:54:09.425Z,35.85
2022-08-05T09:56:38.865Z,35.75
2022-08-05T09:59:09.471Z,35.29
2022-08-05T10:01:45.745Z,35.18
2022-08-05T10:04:16.142Z,35.22
2022-08-05T10:06:59.361Z,35.01
2022-08-05T10:09:28.133Z,34.64
2022-08-05T10:12:31.403Z,34.69
2022-08-05T10:14:40.609Z,34.90
2022-08-05T10:17:39.771Z,35.08
2022-08-05T10:20:03.549Z,35.13
2022-08-05T10:22:30.030Z,35.19
2022-08-05T10:24:46.025Z,35.17
2022-08-05T10:27:14.598Z,35.22
2022-08-05T10:30:41.365Z,35.18
2022-08-05T10:32:52.513Z,35.13
2022-08-05T10:34:48.940Z,35.06
2022-08-05T10:37:21.009Z,35.01
2022-08-05T10:39:59.346Z,34.99
2022-08-05T10:42:33.574Z,34.98
2022-08-05T10:44:55.126Z,34.76
2022-08-05T10:47:39.576Z,34.64
2022-08-05T10:50:33.177Z,34.71
2022-08-05T10:52:49.835Z,34.75
2022-08-05T10:55:18.546Z,34.78
2022-08-05T10:57:46.567Z,34.86
2022-08-05T11:00:23.715Z,34.87
2022-08-05T11:03:25.563Z,34.82
2022-08-05T11:05:41.590Z,35.00
2022-08-05T11:08:34.289Z,35.29
2022-08-05T11:10:50.438Z,35.41
2022-08-05T11:13:15.521Z,35.55
2022-08-05T11:16:00.662Z,35.75
2022-08-05T11:18:27.383Z,35.84
2022-08-05T11:20:57.292Z,36.01
2022-08-05T11:24:03.951Z,36.15
2022-08-05T11:26:11.142Z,36.22
2022-08-05T11:28:43.362Z,36.19
2022-08-05T11:31:19.647Z,36.24
2022-08-05T11:33:54.336Z,36.28
2022-08-05T11:36:46.885Z,36.27
2022-08-05T11:39:19.755Z,36.04
2022-08-05T11:42:01.767Z,36.00
2022-08-05T11:44:40.953Z,35.98
2022-08-05T11:46:58.196Z,35.91
2022-08-05T11:49:23.138Z,35.94
2022-08-05T11:51:53.011Z,36.01
2022-08-05T11:54:33.537Z,36.03
2022-08-05T11:56:57.509Z,35.97
2022-08-05T11:59:28.951Z,35.89
2022-08-05T12:02:07.602Z,35.59
2022-08-05T12:04:45.252Z,35.57
2022-08-05T12:07:16.340Z,35.64
2022-08-05T12:09:53.251Z,35.73
2022-08-05T12:12:23.072Z,35.73
2022-08-05T12:14:52.879Z,35.71
2022-08-05T12:18:03.900Z,35.72
2022-08-05T12:20:16.991Z,35.72
2022-08-05T12:22:36.495Z,35.77
2022-08-05T12:25:06.559Z,35.80
2022-08-05T12:27:37.003Z,35.75
2022-08-05T12:30:15.607Z,35.65
2022-08-05T12:32:51.665Z,35.58
2022-08-05T12:35:23.128Z,35.56
2022-08-05T12:38:01.945Z,35.54
2022-08-05T12:40:44.101Z,35.53
2022-08-05T12:43:20.829Z,35.50
2022-08-05T12:45:53.554Z,35.40
2022-08-05T12:48:32.480Z,35.39
2022-08-05T12:52:10.414Z,35.26
2022-08-05T12:53:55.734Z,35.16
2022-08-05T12:56:34.490Z,35.13
2022-08-05T12:59:20.788Z,34.94
2022-08-05T13:02:00.356Z,34.93
2022-08-05T13:04:20.975Z,35.00
2022-08-05T13:06:51.982Z,34.99
2022-08-05T13:09:28.014Z,35.03
2022-08-05T13:12:02.289Z,35.08
2022-08-05T13:14:24.850Z,35.11
2022-08-05T13:17:00.948Z,35.16
2022-08-05T13:19:51.106Z,35.09
2022-08-05T13:21:58.926Z,35.08
2022-08-05T13:24:27.808Z,34.98
2022-08-05T13:26:57.758Z,34.99
2022-08-05T13:29:37.502Z,34.95
2022-08-05T13:32:03.911Z,34.96
2022-08-05T13:34:27.586Z,34.93
2022-08-05T13:36:55.722Z,34.87
2022-08-05T13:40:14.484Z,34.81
2022-08-05T13:41:52.878Z,34.73
2022-08-05T13:44:20.818Z,34.63
2022-08-05T13:47:02.568Z,34.64
2022-08-05T13:49:18.459Z,34.67
2022-08-05T13:51:47.129Z,34.74
2022-08-05T13:54:16.600Z,34.70
2022-08-05T13:56:51.100Z,34.74
2022-08-05T13:59:19.976Z,34.73
2022-08-05T14:01:56.279Z,34.72
2022-08-05T14:04:31.835Z,34.71
2022-08-05T14:07:12.107Z,34.70
2022-08-05T14:09:30.561Z,34.66
2022-08-05T14:12:04.663Z,34.60
2022-08-05T14:14:30.836Z,34.42
2022-08-05T14:16:57.535Z,34.27
2022-08-05T14:19:25.394Z,34.09
2022-08-05T14:22:10.085Z,33.95
2022-08-05T14:24:23.330Z,33.95
2022-08-05T14:27:08.533Z,33.95
2022-08-05T14:29:20.376Z,33.91
2022-08-05T14:32:02.830Z,33.90
2022-08-05T14:34:19.333Z,33.89
2022-08-05T14:36:48.852Z,33.82
2022-08-05T14:39:23.261Z,33.86
2022-08-05T14:42:08.781Z,33.89
2022-08-05T14:44:21.782Z,33.95
2022-08-05T14:46:45.294Z,33.78
2022-08-05T14:49:13.562Z,33.68
2022-08-05T14:51:42.461Z,33.58
2022-08-05T14:54:28.426Z,33.53
2022-08-05T14:56:44.187Z,33.49
2022-08-05T14:59:10.926Z,33.45
2022-08-05T15:01:47.946Z,33.44
2022-08-05T15:04:13.574Z,33.44
2022-08-05T15:06:41.337Z,33.47
2022-08-05T15:09:10.715Z,33.44
2022-08-05T15:11:51.141Z,33.43
2022-08-05T15:14:09.682Z,33.42
2022-08-05T15:16:37.343Z,33.45
2022-08-05T15:19:06.680Z,33.46
2022-08-05T15:21:36.147Z,33.42
2022-08-05T15:24:05.955Z,33.33
2022-08-05T15:26:33.723Z,33.33
2022-08-05T15:29:02.558Z,33.33
2022-08-05T15:31:34.552Z,33.32
2022-08-05T15:34:19.134Z,33.31
2022-08-05T15:36:32.077Z,33.26
2022-08-05T15:40:40.969Z,33.24
2022-08-05T15:41:56.285Z,33.23
2022-08-05T15:44:00.202Z,33.19
2022-08-05T15:46:27.868Z,33.15
2022-08-05T15:49:01.450Z,33.11
2022-08-05T15:52:10.083Z,33.01
2022-08-05T15:53:55.949Z,32.92
2022-08-05T15:56:25.114Z,32.86
2022-08-05T15:58:54.833Z,32.81
2022-08-05T16:01:29.429Z,32.77
2022-08-05T16:03:54.209Z,32.70
2022-08-05T16:06:24.251Z,32.65
2022-08-05T16:08:55.203Z,32.52
2022-08-05T16:11:40.163Z,32.43
2022-08-05T16:13:51.302Z,32.38
2022-08-05T16:16:25.087Z,32.32
2022-08-05T16:18:52.243Z,32.24
2022-08-05T16:21:58.720Z,32.18
2022-08-05T16:24:03.481Z,32.14
2022-08-05T16:26:30.205Z,32.08
2022-08-05T16:28:58.840Z,32.03
2022-08-05T16:31:26.511Z,31.97
2022-08-05T16:33:58.216Z,31.84
2022-08-05T16:36:28.795Z,31.83
2022-08-05T16:38:59.293Z,31.79
2022-08-05T16:42:12.221Z,31.73
2022-08-05T16:43:57.767Z,31.67
2022-08-05T16:46:25.546Z,31.55
2022-08-05T16:48:55.695Z,31.48
2022-08-05T16:51:24.495Z,31.38
2022-08-05T16:54:05.649Z,31.28
2022-08-05T16:56:31.263Z,31.21
2022-08-05T16:59:07.946Z,31.13
2022-08-05T17:01:54.221Z,31.07
2022-08-05T17:04:09.355Z,31.00
2022-08-05T17:06:37.986Z,30.92
2022-08-05T17:09:09.747Z,30.84
2022-08-05T17:11:48.635Z,30.77
2022-08-05T17:14:07.141Z,30.68
2022-08-05T17:16:37.975Z,30.59
2022-08-05T17:19:07.517Z,30.49
2022-08-05T17:21:36.771Z,30.39
2022-08-05T17:24:19.689Z,30.31
2022-08-05T17:26:38.518Z,30.18
2022-08-05T17:29:10.213Z,30.08
2022-08-05T17:31:56.392Z,29.98
2022-08-05T17:34:07.047Z,29.89
2022-08-05T17:36:40.672Z,29.80
2022-08-05T17:39:05.560Z,29.70
2022-08-05T17:42:17.447Z,29.62
2022-08-05T17:44:04.433Z,29.56
2022-08-05T17:46:32.629Z,29.46
2022-08-05T17:49:00.269Z,29.33
2022-08-05T17:51:28.444Z,29.18
2022-08-05T17:53:57.786Z,29.05
2022-08-05T17:56:28.348Z,28.92
2022-08-05T17:58:55.088Z,28.76
2022-08-05T18:01:22.573Z,28.49
2022-08-05T18:04:05.746Z,28.28
2022-08-05T18:06:29.370Z,28.14
2022-08-05T18:08:53.280Z,28.04
2022-08-05T18:11:33.196Z,27.95
2022-08-05T18:13:59.538Z,27.83
2022-08-05T18:16:27.565Z,27.66
2022-08-05T18:18:55.625Z,27.52
2022-08-05T18:21:26.499Z,27.39
2022-08-05T18:23:54.818Z,27.23
2022-08-05T18:26:27.578Z,27.09
2022-08-05T18:28:57.558Z,26.92
2022-08-05T18:31:33.085Z,26.76
2022-08-05T18:33:56.668Z,26.63
2022-08-05T18:36:27.969Z,26.50
2022-08-05T18:38:55.503Z,26.37
2022-08-05T18:41:57.470Z,26.21
2022-08-05T18:43:53.241Z,26.04
2022-08-05T18:46:20.903Z,25.89
2022-08-05T18:48:51.819Z,25.74
2022-08-05T18:52:05.668Z,25.57
2022-08-05T18:54:11.790Z,25.43
2022-08-05T18:56:39.342Z,25.29
2022-08-05T18:59:43.090Z,25.21
2022-08-05T19:01:47.760Z,25.17
2022-08-05T19:04:06.378Z,25.13
2022-08-05T19:06:44.738Z,25.10
2022-08-05T19:09:05.347Z,25.07
2022-08-05T19:11:37.016Z,25.03
2022-08-05T19:14:15.204Z,24.99
2022-08-05T19:16:47.063Z,24.97
2022-08-05T19:19:06.175Z,24.95
2022-08-05T19:21:36.290Z,24.91
2022-08-05T19:24:08.925Z,24.86
2022-08-05T19:26:35.094Z,24.82
2022-08-05T19:29:13.969Z,24.77
2022-08-05T19:31:50.894Z,24.72
2022-08-05T19:34:26.354Z,24.66
2022-08-05T19:37:05.042Z,24.62
2022-08-05T19:39:45.119Z,24.56
2022-08-05T19:42:09.226Z,24.52
2022-08-05T19:44:44.889Z,24.46
2022-08-05T19:47:11.235Z,24.41
2022-08-05T19:49:43.712Z,24.35
2022-08-05T19:52:30.917Z,24.28
2022-08-05T19:54:47.675Z,24.20
2022-08-05T19:57:18.654Z,24.10
2022-08-05T20:00:02.072Z,24.02
2022-08-05T20:02:18.534Z,23.99
2022-08-05T20:04:48.494Z,23.95
2022-08-05T20:07:16.214Z,23.88
2022-08-05T20:09:54.761Z,23.84
2022-08-05T20:12:17.677Z,23.81
2022-08-05T20:14:47.560Z,23.77
2022-08-05T20:17:23.173Z,23.74
2022-08-05T20:19:49.758Z,23.72
2022-08-05T20:22:17.276Z,23.70
2022-08-05T20:24:46.604Z,23.66
2022-08-05T20:27:14.263Z,23.61
2022-08-05T20:29:57.810Z,23.60
2022-08-05T20:32:13.127Z,23.56
2022-08-05T20:34:40.725Z,23.53
2022-08-05T20:37:17.834Z,23.50
2022-08-05T20:39:38.566Z,23.47
2022-08-05T20:42:07.886Z,23.42
2022-08-05T20:44:37.913Z,23.36
2022-08-05T20:47:07.544Z,23.27
2022-08-05T20:49:39.355Z,23.18
2022-08-05T20:52:07.860Z,23.04
2022-08-05T20:54:43.479Z,22.94
2022-08-05T20:57:05.709Z,22.86
2022-08-05T21:00:10.607Z,22.80
2022-08-05T21:02:04.572Z,22.74
2022-08-05T21:04:35.466Z,22.70
2022-08-05T21:07:04.953Z,22.59
2022-08-05T21:09:34.826Z,22.51
2022-08-05T21:12:10.424Z,22.46
2022-08-05T21:14:35.068Z,22.42
2022-08-05T21:17:05.298Z,22.36
2022-08-05T21:19:47.268Z,22.35
2022-08-05T21:22:04.086Z,22.33
2022-08-05T21:24:33.601Z,22.34
2022-08-05T21:27:01.331Z,22.33
2022-08-05T21:29:31.828Z,22.33
2022-08-05T21:31:58.639Z,22.32
2022-08-05T21:34:26.267Z,22.32
2022-08-05T21:36:55.804Z,22.30
2022-08-05T21:39:26.785Z,22.29
2022-08-05T21:42:01.594Z,22.29
2022-08-05T21:44:27.116Z,22.27
2022-08-05T21:46:54.278Z,22.26
2022-08-05T21:49:59.295Z,22.23
2022-08-05T21:52:22.675Z,22.22
2022-08-05T21:54:27.886Z,22.20
2022-08-05T21:56:57.674Z,22.20
2022-08-05T21:59:24.433Z,22.19
2022-08-05T22:01:51.319Z,22.18
2022-08-05T22:04:25.373Z,22.18
2022-08-05T22:06:52.342Z,22.17
2022-08-05T22:09:21.153Z,22.15
2022-08-05T22:11:49.186Z,22.14
2022-08-05T22:14:32.931Z,22.11
2022-08-05T22:16:51.974Z,22.07
2022-08-05T22:20:01.791Z,22.01
2022-08-05T22:21:46.116Z,21.96
2022-08-05T22:24:40.534Z,21.91
2022-08-05T22:27:22.451Z,21.87
2022-08-05T22:29:49.937Z,21.85
2022-08-05T22:32:19.179Z,21.83
2022-08-05T22:34:47.344Z,21.81
2022-08-05T22:37:15.027Z,21.79
2022-08-05T22:39:43.576Z,21.78
2022-08-05T22:42:26.363Z,21.78
2022-08-05T22:44:47.050Z,21.76
2022-08-05T22:47:11.318Z,21.75
2022-08-05T22:50:17.972Z,21.74
2022-08-05T22:52:13.814Z,21.74
2022-08-05T22:54:39.067Z,21.75
2022-08-05T22:57:07.129Z,21.74
2022-08-05T22:59:48.334Z,21.73
2022-08-05T23:02:07.821Z,21.72
2022-08-05T23:04:36.002Z,21.72
2022-08-05T23:07:03.698Z,21.71
2022-08-05T23:09:57.531Z,21.70
2022-08-05T23:12:01.137Z,21.69
2022-08-05T23:14:32.038Z,21.66
2022-08-05T23:17:18.581Z,21.68
2022-08-05T23:19:51.099Z,21.67
2022-08-05T23:22:15.890Z,21.68
2022-08-05T23:24:48.509Z,21.69
2022-08-05T23:27:15.019Z,21.68
2022-08-05T23:29:42.654Z,21.66
2022-08-05T23:32:12.070Z,21.63
2022-08-05T23:34:39.933Z,21.61
2022-08-05T23:37:09.299Z,21.61
2022-08-05T23:39:53.806Z,21.60
2022-08-05T23:42:14.001Z,21.60
2022-08-05T23:44:37.291Z,21.59
2022-08-05T23:47:15.387Z,21.58
2022-08-05T23:49:36.191Z,21.57
2022-08-05T23:52:25.285Z,21.53
2022-08-05T23:54:54.781Z,21.50
2022-08-05T23:57:28.007Z,21.49
